sensor_id;sensor_type;location;lat;lon;timestamp;P1;durP1;ratioP1;P2;durP2;ratioP2
20441;SDS011;10380;52.102;20.614;2023-03-14T00:00:10;11.87;;;6.00;;
20441;SDS011;10380;52.102;20.614;2023-03-14T00:02:39;11.97;;;6.20;;
20441;SDS011;10380;52.102;20.614;2023-03-14T00:05:07;9.70;;;6.23;;
20441;SDS011;10380;52.102;20.614;2023-03-14T00:07:35;11.37;;;5.83;;
20441;SDS011;10380;52.102;20.614;2023-03-14T00:10:04;10.93;;;5.87;;
20441;SDS011;10380;52.102;20.614;2023-03-14T00:12:33;8.93;;;5.87;;
20441;SDS011;10380;52.102;20.614;2023-03-14T00:15:00;9.73;;;5.57;;
20441;SDS011;10380;52.102;20.614;2023-03-14T00:17:30;11.27;;;6.97;;
20441;SDS011;10380;52.102;20.614;2023-03-14T00:19:57;10.53;;;6.60;;
20441;SDS011;10380;52.102;20.614;2023-03-14T00:22:31;10.47;;;5.87;;
20441;SDS011;10380;52.102;20.614;2023-03-14T00:24:58;10.20;;;6.17;;
20441;SDS011;10380;52.102;20.614;2023-03-14T00:27:25;13.17;;;6.40;;
20441;SDS011;10380;52.102;20.614;2023-03-14T00:29:52;13.20;;;6.80;;
20441;SDS011;10380;52.102;20.614;2023-03-14T00:32:19;11.00;;;6.03;;
20441;SDS011;10380;52.102;20.614;2023-03-14T00:34:47;9.17;;;5.43;;
20441;SDS011;10380;52.102;20.614;2023-03-14T00:37:13;9.93;;;5.57;;
20441;SDS011;10380;52.102;20.614;2023-03-14T00:39:42;12.27;;;6.00;;
20441;SDS011;10380;52.102;20.614;2023-03-14T00:42:09;12.00;;;6.00;;
20441;SDS011;10380;52.102;20.614;2023-03-14T00:44:36;9.40;;;5.37;;
20441;SDS011;10380;52.102;20.614;2023-03-14T00:47:04;11.67;;;6.37;;
20441;SDS011;10380;52.102;20.614;2023-03-14T00:49:31;11.43;;;6.77;;
20441;SDS011;10380;52.102;20.614;2023-03-14T00:51:58;9.40;;;6.10;;
20441;SDS011;10380;52.102;20.614;2023-03-14T00:54:24;9.93;;;6.30;;
20441;SDS011;10380;52.102;20.614;2023-03-14T00:56:52;11.33;;;6.07;;
20441;SDS011;10380;52.102;20.614;2023-03-14T00:59:19;10.70;;;6.97;;
20441;SDS011;10380;52.102;20.614;2023-03-14T01:01:46;9.83;;;6.00;;
20441;SDS011;10380;52.102;20.614;2023-03-14T01:04:13;13.93;;;6.37;;
20441;SDS011;10380;52.102;20.614;2023-03-14T01:06:40;12.93;;;6.47;;
20441;SDS011;10380;52.102;20.614;2023-03-14T01:09:07;12.20;;;6.97;;
20441;SDS011;10380;52.102;20.614;2023-03-14T01:11:34;14.17;;;6.83;;
20441;SDS011;10380;52.102;20.614;2023-03-14T01:14:02;9.63;;;6.13;;
20441;SDS011;10380;52.102;20.614;2023-03-14T01:16:31;9.73;;;6.70;;
20441;SDS011;10380;52.102;20.614;2023-03-14T01:19:02;12.10;;;6.70;;
20441;SDS011;10380;52.102;20.614;2023-03-14T01:21:30;11.27;;;5.80;;
20441;SDS011;10380;52.102;20.614;2023-03-14T01:23:59;17.37;;;6.00;;
20441;SDS011;10380;52.102;20.614;2023-03-14T01:26:29;10.80;;;6.13;;
20441;SDS011;10380;52.102;20.614;2023-03-14T01:28:58;11.23;;;6.33;;
20441;SDS011;10380;52.102;20.614;2023-03-14T01:31:28;11.43;;;6.53;;
20441;SDS011;10380;52.102;20.614;2023-03-14T01:33:55;10.27;;;6.30;;
20441;SDS011;10380;52.102;20.614;2023-03-14T01:36:25;14.00;;;6.57;;
20441;SDS011;10380;52.102;20.614;2023-03-14T01:38:52;11.00;;;6.40;;
20441;SDS011;10380;52.102;20.614;2023-03-14T01:41:20;8.90;;;6.00;;
20441;SDS011;10380;52.102;20.614;2023-03-14T01:43:49;10.00;;;6.03;;
20441;SDS011;10380;52.102;20.614;2023-03-14T01:51:59;10.17;;;6.27;;
20441;SDS011;10380;52.102;20.614;2023-03-14T01:54:35;12.50;;;5.63;;
20441;SDS011;10380;52.102;20.614;2023-03-14T01:59:51;10.37;;;6.03;;
20441;SDS011;10380;52.102;20.614;2023-03-14T02:02:23;10.03;;;5.97;;
20441;SDS011;10380;52.102;20.614;2023-03-14T02:04:54;12.23;;;7.63;;
20441;SDS011;10380;52.102;20.614;2023-03-14T02:07:23;11.07;;;6.70;;
20441;SDS011;10380;52.102;20.614;2023-03-14T02:09:56;8.80;;;5.27;;
20441;SDS011;10380;52.102;20.614;2023-03-14T02:12:26;8.37;;;6.13;;
20441;SDS011;10380;52.102;20.614;2023-03-14T02:14:54;8.93;;;5.33;;
20441;SDS011;10380;52.102;20.614;2023-03-14T02:17:21;10.93;;;5.33;;
20441;SDS011;10380;52.102;20.614;2023-03-14T02:22:21;7.77;;;5.37;;
20441;SDS011;10380;52.102;20.614;2023-03-14T02:25:11;9.80;;;5.90;;
20441;SDS011;10380;52.102;20.614;2023-03-14T02:27:48;9.83;;;5.70;;
20441;SDS011;10380;52.102;20.614;2023-03-14T02:30:23;12.40;;;5.90;;
20441;SDS011;10380;52.102;20.614;2023-03-14T02:32:54;8.97;;;6.17;;
20441;SDS011;10380;52.102;20.614;2023-03-14T02:35:26;10.90;;;6.20;;
20441;SDS011;10380;52.102;20.614;2023-03-14T02:37:59;11.10;;;6.00;;
20441;SDS011;10380;52.102;20.614;2023-03-14T02:40:33;12.00;;;5.80;;
20441;SDS011;10380;52.102;20.614;2023-03-14T02:43:00;13.37;;;6.37;;
20441;SDS011;10380;52.102;20.614;2023-03-14T02:48:11;10.47;;;5.40;;
20441;SDS011;10380;52.102;20.614;2023-03-14T02:50:46;13.53;;;6.10;;
20441;SDS011;10380;52.102;20.614;2023-03-14T02:53:19;10.57;;;5.60;;
20441;SDS011;10380;52.102;20.614;2023-03-14T02:55:49;8.83;;;5.50;;
20441;SDS011;10380;52.102;20.614;2023-03-14T02:58:17;8.77;;;5.17;;
20441;SDS011;10380;52.102;20.614;2023-03-14T03:00:45;8.90;;;4.87;;
20441;SDS011;10380;52.102;20.614;2023-03-14T03:03:12;8.57;;;5.17;;
20441;SDS011;10380;52.102;20.614;2023-03-14T03:05:39;8.53;;;4.63;;
20441;SDS011;10380;52.102;20.614;2023-03-14T03:08:07;9.57;;;4.50;;
20441;SDS011;10380;52.102;20.614;2023-03-14T03:10:34;8.83;;;5.13;;
20441;SDS011;10380;52.102;20.614;2023-03-14T03:13:01;7.30;;;4.77;;
20441;SDS011;10380;52.102;20.614;2023-03-14T03:15:30;8.37;;;4.80;;
20441;SDS011;10380;52.102;20.614;2023-03-14T03:17:57;6.83;;;4.73;;
20441;SDS011;10380;52.102;20.614;2023-03-14T03:20:25;11.73;;;5.23;;
20441;SDS011;10380;52.102;20.614;2023-03-14T03:22:52;7.27;;;4.87;;
20441;SDS011;10380;52.102;20.614;2023-03-14T03:25:19;8.97;;;4.80;;
20441;SDS011;10380;52.102;20.614;2023-03-14T03:27:46;10.70;;;4.30;;
20441;SDS011;10380;52.102;20.614;2023-03-14T03:30:14;9.90;;;5.00;;
20441;SDS011;10380;52.102;20.614;2023-03-14T03:32:42;9.40;;;4.47;;
20441;SDS011;10380;52.102;20.614;2023-03-14T03:35:10;9.93;;;4.73;;
20441;SDS011;10380;52.102;20.614;2023-03-14T03:37:37;7.77;;;4.47;;
20441;SDS011;10380;52.102;20.614;2023-03-14T03:40:04;7.77;;;4.50;;
20441;SDS011;10380;52.102;20.614;2023-03-14T03:42:32;8.43;;;4.33;;
20441;SDS011;10380;52.102;20.614;2023-03-14T03:45:00;8.27;;;4.07;;
20441;SDS011;10380;52.102;20.614;2023-03-14T03:47:27;12.10;;;4.90;;
20441;SDS011;10380;52.102;20.614;2023-03-14T03:49:55;7.67;;;4.17;;
20441;SDS011;10380;52.102;20.614;2023-03-14T03:52:22;7.00;;;4.70;;
20441;SDS011;10380;52.102;20.614;2023-03-14T03:54:49;6.27;;;4.40;;
20441;SDS011;10380;52.102;20.614;2023-03-14T03:57:16;6.67;;;4.53;;
20441;SDS011;10380;52.102;20.614;2023-03-14T03:59:43;5.77;;;3.83;;
20441;SDS011;10380;52.102;20.614;2023-03-14T04:02:10;8.67;;;3.97;;
20441;SDS011;10380;52.102;20.614;2023-03-14T04:04:37;5.93;;;3.90;;
20441;SDS011;10380;52.102;20.614;2023-03-14T04:07:05;5.57;;;3.80;;
20441;SDS011;10380;52.102;20.614;2023-03-14T04:09:32;11.40;;;4.77;;
20441;SDS011;10380;52.102;20.614;2023-03-14T04:11:59;6.77;;;3.80;;
20441;SDS011;10380;52.102;20.614;2023-03-14T04:14:25;8.23;;;5.03;;
20441;SDS011;10380;52.102;20.614;2023-03-14T04:16:52;8.10;;;4.50;;
20441;SDS011;10380;52.102;20.614;2023-03-14T04:19:20;8.07;;;4.03;;
20441;SDS011;10380;52.102;20.614;2023-03-14T04:21:47;5.67;;;4.57;;
20441;SDS011;10380;52.102;20.614;2023-03-14T04:24:15;10.67;;;4.17;;
20441;SDS011;10380;52.102;20.614;2023-03-14T04:26:42;7.87;;;4.27;;
20441;SDS011;10380;52.102;20.614;2023-03-14T04:29:09;9.17;;;4.57;;
20441;SDS011;10380;52.102;20.614;2023-03-14T04:31:39;8.07;;;4.40;;
20441;SDS011;10380;52.102;20.614;2023-03-14T04:34:06;5.13;;;3.53;;
20441;SDS011;10380;52.102;20.614;2023-03-14T04:36:33;6.00;;;3.53;;
20441;SDS011;10380;52.102;20.614;2023-03-14T04:39:03;6.07;;;3.57;;
20441;SDS011;10380;52.102;20.614;2023-03-14T04:41:30;7.20;;;4.40;;
20441;SDS011;10380;52.102;20.614;2023-03-14T04:43:57;8.93;;;4.40;;
20441;SDS011;10380;52.102;20.614;2023-03-14T04:46:26;7.20;;;4.10;;
20441;SDS011;10380;52.102;20.614;2023-03-14T04:48:53;5.13;;;3.70;;
20441;SDS011;10380;52.102;20.614;2023-03-14T04:51:22;6.43;;;4.20;;
20441;SDS011;10380;52.102;20.614;2023-03-14T04:53:51;6.53;;;4.20;;
20441;SDS011;10380;52.102;20.614;2023-03-14T04:56:18;8.37;;;3.73;;
20441;SDS011;10380;52.102;20.614;2023-03-14T04:58:45;6.50;;;3.47;;
20441;SDS011;10380;52.102;20.614;2023-03-14T05:01:12;5.63;;;3.27;;
20441;SDS011;10380;52.102;20.614;2023-03-14T05:03:39;5.17;;;3.70;;
20441;SDS011;10380;52.102;20.614;2023-03-14T05:06:06;5.27;;;3.87;;
20441;SDS011;10380;52.102;20.614;2023-03-14T05:08:33;6.90;;;3.53;;
20441;SDS011;10380;52.102;20.614;2023-03-14T05:11:00;8.83;;;3.97;;
20441;SDS011;10380;52.102;20.614;2023-03-14T05:13:27;6.40;;;4.37;;
20441;SDS011;10380;52.102;20.614;2023-03-14T05:16:02;5.80;;;3.50;;
20441;SDS011;10380;52.102;20.614;2023-03-14T05:18:34;6.30;;;3.90;;
20441;SDS011;10380;52.102;20.614;2023-03-14T05:23:31;7.43;;;3.40;;
20441;SDS011;10380;52.102;20.614;2023-03-14T05:25:58;5.83;;;3.93;;
20441;SDS011;10380;52.102;20.614;2023-03-14T05:28:30;7.40;;;3.97;;
20441;SDS011;10380;52.102;20.614;2023-03-14T05:30:58;6.80;;;3.80;;
20441;SDS011;10380;52.102;20.614;2023-03-14T05:33:24;8.23;;;3.40;;
20441;SDS011;10380;52.102;20.614;2023-03-14T05:35:51;7.47;;;3.47;;
20441;SDS011;10380;52.102;20.614;2023-03-14T05:38:18;7.13;;;3.60;;
20441;SDS011;10380;52.102;20.614;2023-03-14T05:40:45;4.27;;;3.10;;
20441;SDS011;10380;52.102;20.614;2023-03-14T05:43:12;4.97;;;3.30;;
20441;SDS011;10380;52.102;20.614;2023-03-14T05:45:39;6.83;;;3.43;;
20441;SDS011;10380;52.102;20.614;2023-03-14T05:48:07;4.80;;;3.47;;
20441;SDS011;10380;52.102;20.614;2023-03-14T05:50:34;8.70;;;3.80;;
20441;SDS011;10380;52.102;20.614;2023-03-14T05:53:02;4.17;;;2.63;;
20441;SDS011;10380;52.102;20.614;2023-03-14T05:55:29;7.63;;;3.07;;
20441;SDS011;10380;52.102;20.614;2023-03-14T05:57:55;5.20;;;3.33;;
20441;SDS011;10380;52.102;20.614;2023-03-14T06:00:22;3.67;;;2.67;;
20441;SDS011;10380;52.102;20.614;2023-03-14T06:02:49;4.83;;;3.23;;
20441;SDS011;10380;52.102;20.614;2023-03-14T06:05:16;7.53;;;3.53;;
20441;SDS011;10380;52.102;20.614;2023-03-14T06:07:43;4.03;;;2.60;;
20441;SDS011;10380;52.102;20.614;2023-03-14T06:10:10;7.63;;;3.07;;
20441;SDS011;10380;52.102;20.614;2023-03-14T06:12:37;5.03;;;2.70;;
20441;SDS011;10380;52.102;20.614;2023-03-14T06:15:04;7.40;;;3.20;;
20441;SDS011;10380;52.102;20.614;2023-03-14T06:17:31;5.10;;;3.57;;
20441;SDS011;10380;52.102;20.614;2023-03-14T06:19:58;7.50;;;3.73;;
20441;SDS011;10380;52.102;20.614;2023-03-14T06:22:24;7.17;;;3.80;;
20441;SDS011;10380;52.102;20.614;2023-03-14T06:24:51;4.87;;;3.70;;
20441;SDS011;10380;52.102;20.614;2023-03-14T06:27:18;4.53;;;3.33;;
20441;SDS011;10380;52.102;20.614;2023-03-14T06:29:45;7.77;;;3.50;;
20441;SDS011;10380;52.102;20.614;2023-03-14T06:32:11;7.27;;;3.87;;
20441;SDS011;10380;52.102;20.614;2023-03-14T06:34:38;9.23;;;3.90;;
20441;SDS011;10380;52.102;20.614;2023-03-14T06:37:05;6.97;;;3.33;;
20441;SDS011;10380;52.102;20.614;2023-03-14T06:39:32;5.47;;;3.05;;
20441;SDS011;10380;52.102;20.614;2023-03-14T06:41:59;5.93;;;3.43;;
20441;SDS011;10380;52.102;20.614;2023-03-14T06:44:25;5.57;;;3.37;;
20441;SDS011;10380;52.102;20.614;2023-03-14T06:46:52;4.00;;;3.53;;
20441;SDS011;10380;52.102;20.614;2023-03-14T06:49:19;7.77;;;3.60;;
20441;SDS011;10380;52.102;20.614;2023-03-14T06:51:46;5.03;;;3.47;;
20441;SDS011;10380;52.102;20.614;2023-03-14T06:54:13;6.07;;;3.00;;
20441;SDS011;10380;52.102;20.614;2023-03-14T06:56:40;8.07;;;3.55;;
20441;SDS011;10380;52.102;20.614;2023-03-14T06:59:06;8.45;;;3.75;;
20441;SDS011;10380;52.102;20.614;2023-03-14T07:01:34;4.18;;;3.42;;
20441;SDS011;10380;52.102;20.614;2023-03-14T07:04:01;6.55;;;3.38;;
20441;SDS011;10380;52.102;20.614;2023-03-14T07:06:28;7.95;;;3.70;;
20441;SDS011;10380;52.102;20.614;2023-03-14T07:08:55;5.93;;;3.30;;
20441;SDS011;10380;52.102;20.614;2023-03-14T07:11:23;3.87;;;2.87;;
20441;SDS011;10380;52.102;20.614;2023-03-14T07:13:49;5.77;;;3.67;;
20441;SDS011;10380;52.102;20.614;2023-03-14T07:16:16;6.07;;;3.33;;
20441;SDS011;10380;52.102;20.614;2023-03-14T07:18:43;9.55;;;3.63;;
20441;SDS011;10380;52.102;20.614;2023-03-14T07:21:10;6.22;;;4.15;;
20441;SDS011;10380;52.102;20.614;2023-03-14T07:23:38;10.60;;;3.85;;
20441;SDS011;10380;52.102;20.614;2023-03-14T07:26:05;5.63;;;3.15;;
20441;SDS011;10380;52.102;20.614;2023-03-14T07:28:32;6.60;;;3.17;;
20441;SDS011;10380;52.102;20.614;2023-03-14T07:30:59;4.57;;;3.30;;
20441;SDS011;10380;52.102;20.614;2023-03-14T07:33:25;6.63;;;3.47;;
20441;SDS011;10380;52.102;20.614;2023-03-14T07:35:52;12.45;;;4.20;;
20441;SDS011;10380;52.102;20.614;2023-03-14T07:38:19;6.55;;;4.20;;
20441;SDS011;10380;52.102;20.614;2023-03-14T07:40:48;5.03;;;3.25;;
20441;SDS011;10380;52.102;20.614;2023-03-14T07:43:15;12.82;;;4.40;;
20441;SDS011;10380;52.102;20.614;2023-03-14T07:45:45;4.80;;;3.20;;
20441;SDS011;10380;52.102;20.614;2023-03-14T07:48:16;6.03;;;3.38;;
20441;SDS011;10380;52.102;20.614;2023-03-14T07:50:43;6.32;;;3.95;;
20441;SDS011;10380;52.102;20.614;2023-03-14T07:53:10;6.38;;;3.95;;
20441;SDS011;10380;52.102;20.614;2023-03-14T07:55:37;8.38;;;3.45;;
20441;SDS011;10380;52.102;20.614;2023-03-14T07:58:05;9.15;;;3.72;;
20441;SDS011;10380;52.102;20.614;2023-03-14T08:00:32;7.53;;;3.42;;
20441;SDS011;10380;52.102;20.614;2023-03-14T08:02:59;5.68;;;3.58;;
20441;SDS011;10380;52.102;20.614;2023-03-14T08:05:27;7.85;;;3.85;;
20441;SDS011;10380;52.102;20.614;2023-03-14T08:07:54;5.18;;;3.15;;
20441;SDS011;10380;52.102;20.614;2023-03-14T08:10:20;7.72;;;3.45;;
20441;SDS011;10380;52.102;20.614;2023-03-14T08:12:54;9.90;;;4.03;;
20441;SDS011;10380;52.102;20.614;2023-03-14T08:15:22;4.38;;;3.40;;
20441;SDS011;10380;52.102;20.614;2023-03-14T08:17:50;6.38;;;3.03;;
20441;SDS011;10380;52.102;20.614;2023-03-14T08:20:17;6.80;;;3.53;;
20441;SDS011;10380;52.102;20.614;2023-03-14T08:22:44;4.95;;;3.50;;
20441;SDS011;10380;52.102;20.614;2023-03-14T08:25:11;5.25;;;3.67;;
20441;SDS011;10380;52.102;20.614;2023-03-14T08:27:38;6.85;;;3.30;;
20441;SDS011;10380;52.102;20.614;2023-03-14T08:30:09;10.93;;;3.70;;
20441;SDS011;10380;52.102;20.614;2023-03-14T08:32:37;6.88;;;3.78;;
20441;SDS011;10380;52.102;20.614;2023-03-14T08:35:05;5.88;;;3.70;;
20441;SDS011;10380;52.102;20.614;2023-03-14T08:37:33;7.85;;;3.65;;
20441;SDS011;10380;52.102;20.614;2023-03-14T08:40:00;5.57;;;3.65;;
20441;SDS011;10380;52.102;20.614;2023-03-14T08:42:27;5.47;;;3.33;;
20441;SDS011;10380;52.102;20.614;2023-03-14T08:44:53;8.82;;;3.97;;
20441;SDS011;10380;52.102;20.614;2023-03-14T08:47:20;4.07;;;3.03;;
20441;SDS011;10380;52.102;20.614;2023-03-14T08:49:47;8.77;;;3.67;;
20441;SDS011;10380;52.102;20.614;2023-03-14T08:52:14;7.55;;;3.97;;
20441;SDS011;10380;52.102;20.614;2023-03-14T08:54:45;5.47;;;3.72;;
20441;SDS011;10380;52.102;20.614;2023-03-14T08:57:12;7.68;;;4.18;;
20441;SDS011;10380;52.102;20.614;2023-03-14T08:59:39;7.95;;;3.75;;
20441;SDS011;10380;52.102;20.614;2023-03-14T09:02:08;7.15;;;4.15;;
20441;SDS011;10380;52.102;20.614;2023-03-14T09:04:39;7.47;;;3.75;;
20441;SDS011;10380;52.102;20.614;2023-03-14T09:07:06;7.15;;;3.80;;
20441;SDS011;10380;52.102;20.614;2023-03-14T09:09:33;6.88;;;4.07;;
20441;SDS011;10380;52.102;20.614;2023-03-14T09:12:00;5.45;;;3.72;;
20441;SDS011;10380;52.102;20.614;2023-03-14T09:14:27;6.05;;;3.50;;
20441;SDS011;10380;52.102;20.614;2023-03-14T09:16:54;8.95;;;3.92;;
20441;SDS011;10380;52.102;20.614;2023-03-14T09:19:21;7.00;;;4.03;;
20441;SDS011;10380;52.102;20.614;2023-03-14T09:21:48;5.93;;;3.45;;
20441;SDS011;10380;52.102;20.614;2023-03-14T09:24:15;8.75;;;4.50;;
20441;SDS011;10380;52.102;20.614;2023-03-14T09:26:42;6.60;;;3.67;;
20441;SDS011;10380;52.102;20.614;2023-03-14T09:29:09;6.95;;;3.58;;
20441;SDS011;10380;52.102;20.614;2023-03-14T09:31:36;7.47;;;3.78;;
20441;SDS011;10380;52.102;20.614;2023-03-14T09:34:03;8.07;;;3.22;;
20441;SDS011;10380;52.102;20.614;2023-03-14T09:36:30;5.15;;;3.30;;
20441;SDS011;10380;52.102;20.614;2023-03-14T09:38:58;5.55;;;3.10;;
20441;SDS011;10380;52.102;20.614;2023-03-14T09:41:26;12.02;;;3.92;;
20441;SDS011;10380;52.102;20.614;2023-03-14T09:44:00;4.32;;;3.10;;
20441;SDS011;10380;52.102;20.614;2023-03-14T09:46:29;4.85;;;3.30;;
20441;SDS011;10380;52.102;20.614;2023-03-14T09:48:56;9.15;;;3.95;;
20441;SDS011;10380;52.102;20.614;2023-03-14T09:51:23;8.73;;;4.03;;
20441;SDS011;10380;52.102;20.614;2023-03-14T09:53:52;5.43;;;3.40;;
20441;SDS011;10380;52.102;20.614;2023-03-14T09:56:19;9.00;;;4.05;;
20441;SDS011;10380;52.102;20.614;2023-03-14T09:58:55;8.75;;;3.60;;
20441;SDS011;10380;52.102;20.614;2023-03-14T10:01:29;7.28;;;3.33;;
20441;SDS011;10380;52.102;20.614;2023-03-14T10:04:10;7.38;;;3.70;;
20441;SDS011;10380;52.102;20.614;2023-03-14T10:06:41;9.27;;;3.90;;
20441;SDS011;10380;52.102;20.614;2023-03-14T10:09:11;11.40;;;3.95;;
20441;SDS011;10380;52.102;20.614;2023-03-14T10:11:45;8.70;;;4.47;;
20441;SDS011;10380;52.102;20.614;2023-03-14T10:14:12;10.20;;;4.30;;
20441;SDS011;10380;52.102;20.614;2023-03-14T10:16:43;6.50;;;4.22;;
20441;SDS011;10380;52.102;20.614;2023-03-14T10:19:13;7.72;;;3.83;;
20441;SDS011;10380;52.102;20.614;2023-03-14T10:21:42;8.43;;;4.15;;
20441;SDS011;10380;52.102;20.614;2023-03-14T10:26:57;8.75;;;5.38;;
20441;SDS011;10380;52.102;20.614;2023-03-14T10:29:30;6.85;;;3.13;;
20441;SDS011;10380;52.102;20.614;2023-03-14T10:32:00;10.05;;;3.80;;
20441;SDS011;10380;52.102;20.614;2023-03-14T10:34:33;9.23;;;3.92;;
20441;SDS011;10380;52.102;20.614;2023-03-14T10:39:49;7.25;;;4.18;;
20441;SDS011;10380;52.102;20.614;2023-03-14T10:42:25;9.48;;;3.63;;
20441;SDS011;10380;52.102;20.614;2023-03-14T10:44:58;10.50;;;4.13;;
20441;SDS011;10380;52.102;20.614;2023-03-14T10:47:27;5.18;;;3.78;;
20441;SDS011;10380;52.102;20.614;2023-03-14T10:49:55;5.85;;;3.60;;
20441;SDS011;10380;52.102;20.614;2023-03-14T10:55:11;8.25;;;3.92;;
20441;SDS011;10380;52.102;20.614;2023-03-14T10:57:39;9.27;;;4.72;;
20441;SDS011;10380;52.102;20.614;2023-03-14T11:00:25;8.98;;;4.47;;
20441;SDS011;10380;52.102;20.614;2023-03-14T11:05:34;6.90;;;3.97;;
20441;SDS011;10380;52.102;20.614;2023-03-14T11:08:27;9.85;;;4.20;;
20441;SDS011;10380;52.102;20.614;2023-03-14T11:11:24;6.90;;;4.55;;
20441;SDS011;10380;52.102;20.614;2023-03-14T11:16:47;11.70;;;4.65;;
20441;SDS011;10380;52.102;20.614;2023-03-14T11:33:38;8.75;;;4.30;;
20441;SDS011;10380;52.102;20.614;2023-03-14T11:36:08;10.55;;;5.57;;
20441;SDS011;10380;52.102;20.614;2023-03-14T11:41:24;13.00;;;5.43;;
20441;SDS011;10380;52.102;20.614;2023-03-14T11:44:10;8.93;;;4.90;;
20441;SDS011;10380;52.102;20.614;2023-03-14T11:46:48;7.70;;;4.88;;
20441;SDS011;10380;52.102;20.614;2023-03-14T11:52:03;12.05;;;5.93;;
20441;SDS011;10380;52.102;20.614;2023-03-14T11:54:52;9.35;;;5.72;;
20441;SDS011;10380;52.102;20.614;2023-03-14T11:57:26;8.90;;;5.20;;
20441;SDS011;10380;52.102;20.614;2023-03-14T12:02:49;8.07;;;5.32;;
20441;SDS011;10380;52.102;20.614;2023-03-14T12:14:26;8.70;;;5.43;;
20441;SDS011;10380;52.102;20.614;2023-03-14T12:16:56;10.02;;;5.78;;
20441;SDS011;10380;52.102;20.614;2023-03-14T12:19:41;12.93;;;6.50;;
20441;SDS011;10380;52.102;20.614;2023-03-14T12:24:57;11.65;;;5.32;;
20441;SDS011;10380;52.102;20.614;2023-03-14T12:27:40;12.38;;;5.90;;
20441;SDS011;10380;52.102;20.614;2023-03-14T12:38:15;11.88;;;6.22;;
20441;SDS011;10380;52.102;20.614;2023-03-14T12:40:58;11.27;;;6.07;;
20441;SDS011;10380;52.102;20.614;2023-03-14T12:43:30;9.27;;;4.70;;
20441;SDS011;10380;52.102;20.614;2023-03-14T12:48:47;8.90;;;4.90;;
20441;SDS011;10380;52.102;20.614;2023-03-14T12:51:17;8.90;;;5.23;;
20441;SDS011;10380;52.102;20.614;2023-03-14T12:53:52;9.33;;;5.63;;
20441;SDS011;10380;52.102;20.614;2023-03-14T12:56:28;10.60;;;5.60;;
20441;SDS011;10380;52.102;20.614;2023-03-14T13:01:58;9.07;;;6.60;;
20441;SDS011;10380;52.102;20.614;2023-03-14T13:07:12;11.57;;;7.20;;
20441;SDS011;10380;52.102;20.614;2023-03-14T13:15:44;11.87;;;8.10;;
20441;SDS011;10380;52.102;20.614;2023-03-14T13:18:16;12.00;;;7.67;;
20441;SDS011;10380;52.102;20.614;2023-03-14T13:20:50;10.77;;;8.50;;
20441;SDS011;10380;52.102;20.614;2023-03-14T13:23:25;10.27;;;6.73;;
20441;SDS011;10380;52.102;20.614;2023-03-14T13:25:59;11.30;;;7.00;;
20441;SDS011;10380;52.102;20.614;2023-03-14T13:28:28;9.93;;;6.43;;
20441;SDS011;10380;52.102;20.614;2023-03-14T13:31:00;10.83;;;6.73;;
20441;SDS011;10380;52.102;20.614;2023-03-14T13:33:28;12.03;;;7.17;;
20441;SDS011;10380;52.102;20.614;2023-03-14T13:35:56;13.53;;;5.93;;
20441;SDS011;10380;52.102;20.614;2023-03-14T13:38:26;6.80;;;4.80;;
20441;SDS011;10380;52.102;20.614;2023-03-14T13:40:55;8.37;;;5.60;;
20441;SDS011;10380;52.102;20.614;2023-03-14T13:43:30;8.27;;;5.53;;
20441;SDS011;10380;52.102;20.614;2023-03-14T13:46:03;9.53;;;7.00;;
20441;SDS011;10380;52.102;20.614;2023-03-14T13:48:43;10.70;;;5.17;;
20441;SDS011;10380;52.102;20.614;2023-03-14T13:51:16;8.40;;;5.37;;
20441;SDS011;10380;52.102;20.614;2023-03-14T13:53:45;7.80;;;5.27;;
20441;SDS011;10380;52.102;20.614;2023-03-14T13:56:22;6.93;;;5.10;;
20441;SDS011;10380;52.102;20.614;2023-03-14T13:58:51;8.30;;;5.50;;
20441;SDS011;10380;52.102;20.614;2023-03-14T14:01:28;8.47;;;5.03;;
20441;SDS011;10380;52.102;20.614;2023-03-14T14:04:08;7.43;;;4.53;;
20441;SDS011;10380;52.102;20.614;2023-03-14T14:06:44;7.50;;;4.70;;
20441;SDS011;10380;52.102;20.614;2023-03-14T14:09:17;6.70;;;4.63;;
20441;SDS011;10380;52.102;20.614;2023-03-14T14:11:48;8.33;;;4.67;;
20441;SDS011;10380;52.102;20.614;2023-03-14T14:17:26;6.57;;;4.40;;
20441;SDS011;10380;52.102;20.614;2023-03-14T14:20:00;5.93;;;4.30;;
20441;SDS011;10380;52.102;20.614;2023-03-14T14:22:30;7.97;;;4.83;;
20441;SDS011;10380;52.102;20.614;2023-03-14T14:24:59;9.00;;;4.63;;
20441;SDS011;10380;52.102;20.614;2023-03-14T14:30:01;8.57;;;4.97;;
20441;SDS011;10380;52.102;20.614;2023-03-14T14:32:35;7.53;;;5.60;;
20441;SDS011;10380;52.102;20.614;2023-03-14T14:35:06;8.77;;;5.50;;
20441;SDS011;10380;52.102;20.614;2023-03-14T14:37:43;8.93;;;6.17;;
20441;SDS011;10380;52.102;20.614;2023-03-14T14:41:11;8.23;;;5.83;;
20441;SDS011;10380;52.102;20.614;2023-03-14T14:43:12;9.13;;;6.20;;
20441;SDS011;10380;52.102;20.614;2023-03-14T14:45:53;8.60;;;5.93;;
20441;SDS011;10380;52.102;20.614;2023-03-14T14:48:23;12.40;;;6.63;;
20441;SDS011;10380;52.102;20.614;2023-03-14T14:51:01;8.63;;;6.70;;
20441;SDS011;10380;52.102;20.614;2023-03-14T14:53:31;11.33;;;6.83;;
20441;SDS011;10380;52.102;20.614;2023-03-14T14:56:04;14.13;;;7.00;;
20441;SDS011;10380;52.102;20.614;2023-03-14T14:58:35;9.20;;;6.50;;
20441;SDS011;10380;52.102;20.614;2023-03-14T15:03:43;15.70;;;9.40;;
20441;SDS011;10380;52.102;20.614;2023-03-14T15:06:12;11.23;;;7.17;;
20441;SDS011;10380;52.102;20.614;2023-03-14T15:08:40;9.60;;;6.63;;
20441;SDS011;10380;52.102;20.614;2023-03-14T15:11:12;9.43;;;6.73;;
20441;SDS011;10380;52.102;20.614;2023-03-14T15:13:46;11.43;;;6.43;;
20441;SDS011;10380;52.102;20.614;2023-03-14T15:16:17;9.97;;;6.43;;
20441;SDS011;10380;52.102;20.614;2023-03-14T15:18:51;10.93;;;6.77;;
20441;SDS011;10380;52.102;20.614;2023-03-14T15:21:20;9.43;;;6.47;;
20441;SDS011;10380;52.102;20.614;2023-03-14T15:23:48;10.40;;;6.97;;
20441;SDS011;10380;52.102;20.614;2023-03-14T15:26:16;12.67;;;6.70;;
20441;SDS011;10380;52.102;20.614;2023-03-14T15:28:45;9.27;;;6.87;;
20441;SDS011;10380;52.102;20.614;2023-03-14T15:31:15;9.67;;;6.33;;
20441;SDS011;10380;52.102;20.614;2023-03-14T15:33:44;10.63;;;6.73;;
20441;SDS011;10380;52.102;20.614;2023-03-14T15:36:22;10.40;;;6.77;;
20441;SDS011;10380;52.102;20.614;2023-03-14T15:38:51;11.00;;;6.70;;
20441;SDS011;10380;52.102;20.614;2023-03-14T15:41:19;12.60;;;7.83;;
20441;SDS011;10380;52.102;20.614;2023-03-14T15:43:47;13.37;;;8.03;;
20441;SDS011;10380;52.102;20.614;2023-03-14T15:46:14;14.23;;;8.17;;
20441;SDS011;10380;52.102;20.614;2023-03-14T15:48:44;10.20;;;6.60;;
20441;SDS011;10380;52.102;20.614;2023-03-14T15:51:11;13.37;;;7.87;;
20441;SDS011;10380;52.102;20.614;2023-03-14T15:53:38;10.17;;;7.37;;
20441;SDS011;10380;52.102;20.614;2023-03-14T15:56:06;7.77;;;6.47;;
20441;SDS011;10380;52.102;20.614;2023-03-14T15:58:37;11.47;;;7.57;;
20441;SDS011;10380;52.102;20.614;2023-03-14T16:01:07;10.60;;;7.13;;
20441;SDS011;10380;52.102;20.614;2023-03-14T16:03:37;11.73;;;6.90;;
20441;SDS011;10380;52.102;20.614;2023-03-14T16:06:04;12.70;;;7.03;;
20441;SDS011;10380;52.102;20.614;2023-03-14T16:08:31;9.80;;;7.33;;
20441;SDS011;10380;52.102;20.614;2023-03-14T16:10:58;10.30;;;7.33;;
20441;SDS011;10380;52.102;20.614;2023-03-14T16:13:25;11.80;;;7.83;;
20441;SDS011;10380;52.102;20.614;2023-03-14T16:15:57;11.43;;;7.60;;
20441;SDS011;10380;52.102;20.614;2023-03-14T16:18:27;10.97;;;7.50;;